Arthur Brusco — WDC3449 — position and weather

sailwx.info

Track history (hours):
 
Tides and Currents Weather Stations Pressure Air Temp Water Temp Dewpoint Dewpoint Depression Visibility Wind Speed Wind Dir Waves Ship Positions

Arthur Brusco

Owner: Brusco Tug & Barge, Inc, Longview, WA. More information available from US FCC via Universal Licensing System and Coast Guard Vessel Documentation Center.

Last reported at 2017-Oct-17 13:00 UTC. Time now 2017-Oct-17 13:10 UTC.
Position N 37°38' W 123°11'.

Length 35 m; draft 3.2 m.

Type: Other ship. MMSI: 271040404.

Date/timePositionNaut miles runAvg speedWind from/ knotsBaromVisibWave heightAir tempDewpointWater temp
2017-Oct-17 13:00N 37°38' W 123°11'5 9.2
2017-Oct-17 12:30N 37°38' W 123°17'5 9.0
2017-Oct-17 12:01N 37°39' W 123°22'5 9.5
2017-Oct-17 11:30N 37°39' W 123°28'1 2.8
2017-Oct-17 11:01N 37°39' W 123°27'4 7.4
2017-Oct-17 10:30N 37°39' W 123°22'4 7.6
2017-Oct-17 10:00N 37°38' W 123°17'4 7.5
2017-Oct-17 09:30N 37°38' W 123°12'4 7.4
2017-Oct-17 09:01N 37°38' W 123°08'4 7.8
2017-Oct-17 08:31N 37°38' W 123°03'4 7.8
2017-Oct-17 08:00N 37°38' W 122°58'4 8.0
2017-Oct-17 07:30N 37°41' W 122°54'4 7.9
2017-Oct-17 07:00N 37°43' W 122°49'4 7.9
2017-Oct-17 06:30N 37°45' W 122°45'4 7.3
2017-Oct-17 06:00N 37°46' W 122°41'4 7.1
2017-Oct-17 05:30N 37°46' W 122°36'3 6.6
2017-Oct-17 05:01N 37°48' W 122°32'3 5.2
2017-Oct-17 04:30N 37°49' W 122°29'2 4.7
2017-Oct-17 04:00N 37°50' W 122°27'2 4.7
2017-Oct-17 03:30N 37°49' W 122°24'2 4.5
2017-Oct-17 03:01N 37°48' W 122°21'1 2.2
2017-Oct-17 02:31N 37°48' W 122°20'2 3.4
2017-Oct-17 02:01N 37°49' W 122°19'0 0.0
2017-Oct-17 01:31N 37°49' W 122°19'0 0.0
2017-Oct-17 01:00N 37°49' W 122°19'0 0.0
2017-Oct-17 00:30N 37°49' W 122°19'0 0.0
2017-Oct-17 00:00N 37°49' W 122°19'1 2.0
2017-Oct-16 23:31N 37°49' W 122°20'2 3.8
2017-Oct-16 23:00N 37°50' W 122°21'0 0.0
2017-Oct-16 22:31N 37°50' W 122°21'0 0.0
2017-Oct-16 22:00N 37°50' W 122°21'0 0.0
2017-Oct-16 21:31N 37°50' W 122°21'0 0.0
2017-Oct-16 21:00N 37°50' W 122°21'0 0.0
2017-Oct-16 20:30N 37°50' W 122°21'0 0.0
2017-Oct-16 20:01N 37°50' W 122°21'0 0.0
2017-Oct-16 19:30N 37°50' W 122°21'0 0.1
2017-Oct-16 19:00N 37°50' W 122°21'0 0.7
2017-Oct-16 18:31N 37°50' W 122°22'2 4.1
2017-Oct-16 18:01N 37°49' W 122°24'4 7.8
2017-Oct-16 17:30N 37°49' W 122°29'510.4
2017-Oct-16 17:01N 37°46' W 122°35'5 9.5
2017-Oct-16 16:31N 37°44' W 122°40'4 7.1
2017-Oct-16 16:01N 37°44' W 122°45'5 9.2
2017-Oct-16 15:30N 37°42' W 122°50'5 9.1
2017-Oct-16 15:00N 37°40' W 122°55'9 9.1
2017-Oct-16 14:00N 37°38' W 123°07'6 1.6
2017-Oct-16 10:27N 37°38' W 123°14'3 7.8
2017-Oct-16 10:00N 37°38' W 123°10'4 7.8
2017-Oct-16 09:31N 37°38' W 123°05'4 8.1
2017-Oct-16 09:00N 37°38' W 122°60'4 8.3
2017-Oct-16 08:29N 37°40' W 122°55'5 8.4
2017-Oct-16 07:51N 37°43' W 122°49'3 8.4
2017-Oct-16 07:31N 37°44' W 122°46'4 7.5
2017-Oct-16 07:00N 37°46' W 122°41'4 8.2
2017-Oct-16 06:30N 37°46' W 122°36'4 8.6
2017-Oct-16 06:00N 37°48' W 122°31'4 7.5
2017-Oct-16 05:30N 37°50' W 122°27'3 6.8
2017-Oct-16 05:00N 37°48' W 122°23'3 5.4
2017-Oct-16 04:30N 37°49' W 122°20'0 0.6
2017-Oct-16 04:01N 37°49' W 122°19'1 1.3
2017-Oct-16 03:31N 37°49' W 122°19'1 1.9
2017-Oct-16 03:00N 37°49' W 122°20'1 2.0
2017-Oct-16 02:31N 37°48' W 122°20'2 4.0
2017-Oct-16 02:01N 37°48' W 122°23'4 8.4
2017-Oct-16 01:30N 37°49' W 122°28'510.3
2017-Oct-16 01:01N 37°47' W 122°34'5 9.8
2017-Oct-16 00:31N 37°45' W 122°39'4 7.9
2017-Oct-16 00:01N 37°44' W 122°44'5 9.4
2017-Oct-15 23:30N 37°42' W 122°50'6 9.4
2017-Oct-15 22:51N 37°39' W 122°57'3 9.3
2017-Oct-15 22:30N 37°38' W 123°00'5 9.5
2017-Oct-15 22:00N 37°38' W 123°06'16 9.1
2017-Oct-15 20:18N 37°39' W 123°26'2 6.6
2017-Oct-15 19:57N 37°39' W 123°29'7 6.0
2017-Oct-15 18:46N 37°39' W 123°20'2 7.0
2017-Oct-15 18:27N 37°39' W 123°17'3 7.0
2017-Oct-15 18:00N 37°38' W 123°13'4 7.0
2017-Oct-15 17:31N 37°38' W 123°09'3 6.9
2017-Oct-15 17:00N 37°38' W 123°04'3 6.8
2017-Oct-15 16:31N 37°38' W 123°00'3 6.7
2017-Oct-15 16:00N 37°40' W 122°56'4 6.8
2017-Oct-15 15:27N 37°42' W 122°52'3 6.5
2017-Oct-15 14:56N 37°43' W 122°48'7 6.3
2017-Oct-15 13:48N 37°46' W 122°40'2 6.2
2017-Oct-15 13:26N 37°46' W 122°37'2 5.8
2017-Oct-15 13:00N 37°47' W 122°34'3 5.8
2017-Oct-15 12:30N 37°49' W 122°31'3 5.6
2017-Oct-15 12:01N 37°50' W 122°28'3 5.6
2017-Oct-15 11:30N 37°49' W 122°24'3 5.2
2017-Oct-15 11:00N 37°48' W 122°21'1 2.8
2017-Oct-15 10:31N 37°49' W 122°20'0 0.4
2017-Oct-15 10:00N 37°49' W 122°19'1 1.2
2017-Oct-15 09:31N 37°49' W 122°19'0 0.0
2017-Oct-15 09:01N 37°49' W 122°19'0 0.0
2017-Oct-15 08:30N 37°49' W 122°19'0 0.0
2017-Oct-15 08:01N 37°49' W 122°19'0 0.0
2017-Oct-15 07:31N 37°49' W 122°19'0 0.0
2017-Oct-15 07:01N 37°49' W 122°19'0 0.0
2017-Oct-15 06:31N 37°49' W 122°19'0 0.0
2017-Oct-15 06:00N 37°49' W 122°19'0 0.0
2017-Oct-15 05:31N 37°49' W 122°19'0 0.0
2017-Oct-15 05:01N 37°49' W 122°19'0 0.0
2017-Oct-15 04:31N 37°49' W 122°19'0 0.0
2017-Oct-15 04:00N 37°49' W 122°19'0 0.0
2017-Oct-15 03:30N 37°49' W 122°19'0 0.0
2017-Oct-15 03:01N 37°49' W 122°19'0 0.0
2017-Oct-15 02:31N 37°49' W 122°19'0 0.0
2017-Oct-15 02:01N 37°49' W 122°19'0 0.0
2017-Oct-15 01:30N 37°49' W 122°19'0 0.0
2017-Oct-15 01:01N 37°49' W 122°19'0 0.0
2017-Oct-15 00:31N 37°49' W 122°19'0 0.0
2017-Oct-15 00:00N 37°49' W 122°19'0 0.0
2017-Oct-14 23:31N 37°49' W 122°19'0 0.0
2017-Oct-14 23:01N 37°49' W 122°19'0 0.6
2017-Oct-14 22:30N 37°49' W 122°19'1 1.7
2017-Oct-14 22:01N 37°49' W 122°20'1 1.7
2017-Oct-14 21:30N 37°48' W 122°21'2 3.6
2017-Oct-14 21:01N 37°49' W 122°18'0 0.0
2017-Oct-14 20:31N 37°49' W 122°18'0 0.0
2017-Oct-14 20:01N 37°49' W 122°18'0 0.0
2017-Oct-14 19:31N 37°49' W 122°18'0 0.0
2017-Oct-14 19:01N 37°49' W 122°18'0 0.0
2017-Oct-14 18:30N 37°49' W 122°18'0 0.0
2017-Oct-14 18:00N 37°49' W 122°18'1 2.0
2017-Oct-14 17:31N 37°49' W 122°20'2 3.2
2017-Oct-14 17:01N 37°48' W 122°21'1 2.2
2017-Oct-14 16:30N 37°48' W 122°22'4 8.6
2017-Oct-14 16:01N 37°49' W 122°28'4 7.8
2017-Oct-14 15:31N 37°48' W 122°32'4 8.7
2017-Oct-14 15:01N 37°46' W 122°37'7 7.9
2017-Oct-14 14:04N 37°43' W 122°46'110.2
2017-Oct-14 14:00N 37°43' W 122°47'5 9.9
2017-Oct-14 13:30N 37°41' W 122°52'5 9.9
2017-Oct-14 13:01N 37°39' W 122°58'5 9.2
2017-Oct-14 12:31N 37°38' W 123°03'5 9.4
2017-Oct-14 12:01N 37°38' W 123°09'5 9.6
2017-Oct-14 11:28N 37°38' W 123°16'5 9.3
2017-Oct-14 10:58N 37°39' W 123°22'6 8.9
2017-Oct-14 10:20N 37°39' W 123°29'5 4.3
2017-Oct-14 09:06N 37°39' W 123°22'4 6.0
2017-Oct-14 08:27N 37°39' W 123°17'3 5.6
2017-Oct-14 08:00N 37°39' W 123°14'3 5.7
2017-Oct-14 07:30N 37°38' W 123°10'3 6.2
2017-Oct-14 07:00N 37°38' W 123°07'3 6.2
2017-Oct-14 06:30N 37°38' W 123°03'3 6.4
2017-Oct-14 06:01N 37°38' W 122°59'3 6.6
2017-Oct-14 05:30N 37°40' W 122°55'3 6.5
2017-Oct-14 05:00N 37°42' W 122°52'3 6.6
2017-Oct-14 04:30N 37°43' W 122°48'6 6.1
2017-Oct-14 03:32N 37°46' W 122°41'0 5.7
2017-Oct-14 03:27N 37°46' W 122°40'2 5.5
2017-Oct-14 03:01N 37°46' W 122°37'3 5.8
2017-Oct-14 02:29N 37°47' W 122°34'3 5.8
2017-Oct-14 02:00N 37°48' W 122°31'3 5.4
2017-Oct-14 01:31N 37°50' W 122°28'2 4.0
2017-Oct-14 01:01N 37°50' W 122°25'3 5.9
2017-Oct-14 00:30N 37°48' W 122°22'2 3.7
2017-Oct-14 00:01N 37°49' W 122°20'0 0.3
2017-Oct-13 23:30N 37°49' W 122°20'1 1.2
2017-Oct-13 23:00N 37°48' W 122°21'0 0.2
2017-Oct-13 22:30N 37°48' W 122°21'0 0.6
2017-Oct-13 22:01N 37°49' W 122°20'2 3.0
2017-Oct-13 21:31N 37°49' W 122°18'0 0.0
2017-Oct-13 21:01N 37°49' W 122°18'0 0.4
2017-Oct-13 20:30N 37°49' W 122°19'0 0.4
2017-Oct-13 20:01N 37°49' W 122°18'0 0.0
2017-Oct-13 19:31N 37°49' W 122°18'0 0.0
2017-Oct-13 19:00N 37°49' W 122°18'0 0.0
2017-Oct-13 18:31N 37°49' W 122°18'0 0.0
2017-Oct-13 18:01N 37°49' W 122°18'0 0.0
2017-Oct-13 17:30N 37°49' W 122°18'0 0.0
2017-Oct-13 17:01N 37°49' W 122°18'0 0.0
2017-Oct-13 16:31N 37°49' W 122°18'0 0.0
2017-Oct-13 16:01N 37°49' W 122°18'0 0.0
2017-Oct-13 15:30N 37°49' W 122°18'0 0.1
2017-Oct-13 15:01N 37°49' W 122°19'1 1.3
2017-Oct-13 14:30N 37°49' W 122°19'1 2.5
2017-Oct-13 14:01N 37°48' W 122°21'1 1.7
2017-Oct-13 13:30N 37°49' W 122°20'1 2.1
2017-Oct-13 13:00N 37°49' W 122°19'0 0.0
2017-Oct-13 12:31N 37°49' W 122°19'0 0.0
2017-Oct-13 12:00N 37°49' W 122°19'0 0.0
2017-Oct-13 11:30N 37°49' W 122°19'0 0.0
2017-Oct-13 11:01N 37°49' W 122°19'0 0.0
2017-Oct-13 10:30N 37°49' W 122°19'2 3.3
2017-Oct-13 10:01N 37°48' W 122°20'1 2.0
2017-Oct-13 09:31N 37°49' W 122°19'1 1.4
2017-Oct-13 09:00N 37°49' W 122°18'0 0.0
2017-Oct-13 08:30N 37°49' W 122°18'0 0.0
2017-Oct-13 08:00N 37°49' W 122°18'0 0.0
2017-Oct-13 07:30N 37°49' W 122°18'0 0.0
2017-Oct-13 07:01N 37°49' W 122°18'0 0.0
2017-Oct-13 06:30N 37°49' W 122°18'0 0.0
2017-Oct-13 06:01N 37°49' W 122°18'0 0.0
2017-Oct-13 05:30N 37°49' W 122°18'0 0.1
2017-Oct-13 05:00N 37°49' W 122°19'0 0.0
2017-Oct-13 04:31N 37°49' W 122°19'0 0.0
2017-Oct-13 04:00N 37°49' W 122°19'0 0.0
2017-Oct-13 03:31N 37°49' W 122°19'0 0.0
2017-Oct-13 03:00N 37°49' W 122°19'0 0.0
2017-Oct-13 02:31N 37°49' W 122°19'2 4.3
2017-Oct-13 02:00N 37°50' W 122°21'1 1.7
2017-Oct-13 01:31N 37°49' W 122°21'3 5.7
2017-Oct-13 01:01N 37°46' W 122°20'2 5.0
2017-Oct-13 00:30N 37°48' W 122°21'1 1.8
2017-Oct-13 00:00N 37°49' W 122°21'2 4.2
2017-Oct-12 23:31N 37°47' W 122°21'2 3.4
2017-Oct-12 23:01N 37°46' W 122°19'3 5.2
2017-Oct-12 22:31N 37°49' W 122°20'0 0.6
2017-Oct-12 22:00N 37°49' W 122°20'1 1.1
2017-Oct-12 21:30N 37°48' W 122°21'0 0.5
2017-Oct-12 21:00N 37°49' W 122°20'2 3.1
2017-Oct-12 20:30N 37°49' W 122°19'0 0.0
2017-Oct-12 20:01N 37°49' W 122°19'0 0.0
2017-Oct-12 19:30N 37°49' W 122°19'0 0.2
2017-Oct-12 19:00N 37°49' W 122°19'2 3.2
2017-Oct-12 18:30N 37°48' W 122°20'1 3.0
2017-Oct-12 18:01N 37°49' W 122°21'1 2.0
2017-Oct-12 17:30N 37°50' W 122°21'0 0.0
2017-Oct-12 17:01N 37°50' W 122°21'0 0.1
2017-Oct-12 16:30N 37°50' W 122°21'0 0.0
2017-Oct-12 16:01N 37°50' W 122°21'0 0.1
2017-Oct-12 15:31N 37°50' W 122°21'0 0.0
2017-Oct-12 15:01N 37°50' W 122°21'0 0.0
2017-Oct-12 14:30N 37°50' W 122°21'0 0.1
2017-Oct-12 14:00N 37°50' W 122°21'0 0.0
2017-Oct-12 13:30N 37°50' W 122°21'0 0.0
2017-Oct-12 13:01N 37°50' W 122°21'0 0.0
2017-Oct-12 12:30N 37°50' W 122°21'0 0.0
2017-Oct-12 12:00N 37°50' W 122°21'0 0.5
2017-Oct-12 11:31N 37°50' W 122°22'2 4.1
2017-Oct-12 11:00N 37°49' W 122°24'4 8.0
2017-Oct-12 10:31N 37°49' W 122°29'5 9.6
2017-Oct-12 10:01N 37°47' W 122°35'4 8.7
2017-Oct-12 09:31N 37°45' W 122°40'3 6.9
2017-Oct-12 09:00N 37°44' W 122°44'3 6.4
2017-Oct-12 08:31N 37°43' W 122°48'4 7.6
2017-Oct-12 08:00N 37°41' W 122°52'3 6.8
2017-Oct-12 07:31N 37°40' W 122°56'3 6.3
2017-Oct-12 07:01N 37°38' W 122°59'3 6.6
2017-Oct-12 06:31N 37°38' W 123°03'3 6.8
2017-Oct-12 06:00N 37°38' W 123°08'3 6.6
2017-Oct-12 05:30N 37°38' W 123°12'3 6.6
2017-Oct-12 05:00N 37°39' W 123°16'3 6.4
2017-Oct-12 04:30N 37°39' W 123°20'3 6.2
2017-Oct-12 04:00N 37°39' W 123°24'4 5.8
2017-Oct-12 03:20N 37°39' W 123°29'9 3.7
2017-Oct-12 00:50N 37°39' W 123°17'3 4.2
2017-Oct-12 00:07N 37°38' W 123°13'2 4.5
2017-Oct-11 23:45N 37°38' W 123°11'1 4.5
2017-Oct-11 23:30N 37°38' W 123°10'2 4.5
2017-Oct-11 23:00N 37°38' W 123°07'2 4.4
2017-Oct-11 22:30N 37°38' W 123°04'2 4.6
2017-Oct-11 22:00N 37°38' W 123°01'3 5.1
2017-Oct-11 21:29N 37°38' W 122°58'3 6.1
2017-Oct-11 21:01N 37°40' W 122°55'4 6.0
2017-Oct-11 20:25N 37°42' W 122°51'3 6.1
2017-Oct-11 20:00N 37°43' W 122°48'3 5.7
2017-Oct-11 19:30N 37°44' W 122°45'3 5.6
2017-Oct-11 18:58N 37°46' W 122°42'2 5.2
2017-Oct-11 18:30N 37°46' W 122°39'3 5.5
2017-Oct-11 18:00N 37°47' W 122°35'3 6.1
2017-Oct-11 17:31N 37°48' W 122°32'4 7.8
2017-Oct-11 17:00N 37°50' W 122°27'5 0.3
2017-Oct-11 00:01N 37°50' W 122°21'0 1.0
2017-Oct-10 23:30N 37°49' W 122°21'2 4.5
2017-Oct-10 23:01N 37°49' W 122°18'0 0.0
2017-Oct-10 22:30N 37°49' W 122°18'2 5.0
2017-Oct-10 22:01N 37°47' W 122°21'1 2.3
2017-Oct-10 21:31N 37°46' W 122°20'3 6.9
2017-Oct-10 21:00N 37°50' W 122°22'0 0.8
2017-Oct-10 20:30N 37°50' W 122°21'1 2.9
2017-Oct-10 20:01N 37°49' W 122°20'2 3.1
2017-Oct-10 19:31N 37°49' W 122°19'0 0.0
2017-Oct-10 19:01N 37°49' W 122°19'0 0.0
2017-Oct-10 18:30N 37°49' W 122°19'0 0.0
2017-Oct-10 18:00N 37°49' W 122°19'0 0.0
2017-Oct-10 17:30N 37°49' W 122°19'0 0.0
2017-Oct-10 17:00N 37°49' W 122°19'2 3.7
2017-Oct-10 16:31N 37°48' W 122°21'0 0.8
2017-Oct-10 16:00N 37°48' W 122°21'0 1.0
2017-Oct-10 15:30N 37°48' W 122°21'4 7.5
2017-Oct-10 15:01N 37°49' W 122°26'6 5.6
2017-Oct-10 14:00N 37°47' W 122°32'4 7.8
2017-Oct-10 13:30N 37°46' W 122°37'5 7.7
2017-Oct-10 12:55N 37°44' W 122°42'3 6.9
2017-Oct-10 12:30N 37°43' W 122°46'7 9.1
2017-Oct-10 11:47N 37°41' W 122°53'3 9.5
2017-Oct-10 11:30N 37°39' W 122°56'5 9.1
2017-Oct-10 11:01N 37°38' W 123°02'5 9.2
2017-Oct-10 10:30N 37°38' W 123°08'5 9.1
2017-Oct-10 10:00N 37°38' W 123°13'5 9.1
2017-Oct-10 09:27N 37°39' W 123°20'7 8.9
2017-Oct-10 08:39N 37°39' W 123°29'15 6.3
2017-Oct-10 06:17N 37°38' W 123°10'2 6.7
2017-Oct-10 06:00N 37°38' W 123°07'3 6.9
2017-Oct-10 05:30N 37°38' W 123°03'4 7.0
2017-Oct-10 04:54N 37°39' W 122°58'16 6.9
2017-Oct-10 02:36N 37°45' W 122°40'2 7.3
2017-Oct-10 02:18N 37°46' W 122°37'2 7.5
2017-Oct-10 01:59N 37°47' W 122°34'4 9.0
2017-Oct-10 01:31N 37°49' W 122°30'4 8.8
2017-Oct-10 01:01N 37°49' W 122°24'3 6.4
2017-Oct-10 00:30N 37°48' W 122°20'0 0.5
2017-Oct-10 00:01N 37°48' W 122°20'0 0.7
2017-Oct-09 23:31N 37°48' W 122°20'0 0.0
2017-Oct-09 23:01N 37°48' W 122°20'2 3.2
2017-Oct-09 22:30N 37°49' W 122°21'3 5.3
2017-Oct-09 22:00N 37°51' W 122°23'2 4.6
2017-Oct-09 21:31N 37°53' W 122°24'1 2.6
2017-Oct-09 21:00N 37°54' W 122°23'1 1.6
2017-Oct-09 20:30N 37°54' W 122°22'0 0.2
2017-Oct-09 20:01N 37°54' W 122°22'0 0.8
2017-Oct-09 19:31N 37°54' W 122°23'4 7.3
2017-Oct-09 19:00N 37°51' W 122°22'3 6.2
2017-Oct-09 18:31N 37°49' W 122°19'0 0.6
2017-Oct-09 18:00N 37°49' W 122°18'0 0.0
2017-Oct-09 17:31N 37°49' W 122°18'0 0.0
2017-Oct-09 17:00N 37°49' W 122°18'0 0.0
2017-Oct-09 16:31N 37°49' W 122°18'0 0.0
2017-Oct-09 16:01N 37°49' W 122°18'0 0.0
2017-Oct-09 15:31N 37°49' W 122°18'0 0.0
2017-Oct-09 15:01N 37°49' W 122°18'0 0.0
2017-Oct-09 14:30N 37°49' W 122°18'0 0.0
2017-Oct-09 14:01N 37°49' W 122°18'0 0.1
2017-Oct-09 13:31N 37°49' W 122°19'0 0.1
2017-Oct-09 13:01N 37°49' W 122°18'0 0.0
2017-Oct-09 12:30N 37°49' W 122°18'0 0.0
2017-Oct-09 12:01N 37°49' W 122°18'0 0.0
2017-Oct-09 11:31N 37°49' W 122°18'0 0.0
2017-Oct-09 11:01N 37°49' W 122°18'0 0.0
2017-Oct-09 10:31N 37°49' W 122°18'0 0.0
2017-Oct-09 10:00N 37°49' W 122°18'0 0.0
2017-Oct-09 09:30N 37°49' W 122°18'0 0.0
2017-Oct-09 09:01N 37°49' W 122°18'0 0.0
2017-Oct-09 08:30N 37°49' W 122°18'0 0.1
2017-Oct-09 08:01N 37°49' W 122°19'0 0.1
2017-Oct-09 07:30N 37°49' W 122°18'0 0.0
2017-Oct-09 07:00N 37°49' W 122°18'0 0.0
2017-Oct-09 06:30N 37°49' W 122°18'0 0.0
2017-Oct-09 06:00N 37°49' W 122°18'0 0.0
2017-Oct-09 05:30N 37°49' W 122°18'0 0.0
2017-Oct-09 05:00N 37°49' W 122°18'0 0.0
2017-Oct-09 04:30N 37°49' W 122°18'0 0.0
2017-Oct-09 04:01N 37°49' W 122°18'0 0.0
2017-Oct-09 03:30N 37°49' W 122°18'0 0.0
2017-Oct-09 03:00N 37°49' W 122°18'0 0.0
2017-Oct-09 02:30N 37°49' W 122°18'0 0.0
2017-Oct-09 02:00N 37°49' W 122°18'0 0.0
2017-Oct-09 01:31N 37°49' W 122°18'0 0.0
2017-Oct-09 01:00N 37°49' W 122°18'0 0.0
2017-Oct-09 00:31N 37°49' W 122°18'0 0.0
2017-Oct-09 00:01N 37°49' W 122°18'0 0.6
2017-Oct-08 23:30N 37°49' W 122°19'0 0.0
2017-Oct-08 23:01N 37°49' W 122°19'0 0.0
2017-Oct-08 22:30N 37°49' W 122°19'0 0.0
2017-Oct-08 22:01N 37°49' W 122°19'0 0.6
2017-Oct-08 21:31N 37°49' W 122°18'0 0.0
2017-Oct-08 21:01N 37°49' W 122°18'0 0.0
2017-Oct-08 20:31N 37°49' W 122°18'0 0.0
2017-Oct-08 20:00N 37°49' W 122°18'0 0.0
2017-Oct-08 19:30N 37°49' W 122°18'0 0.0
2017-Oct-08 19:01N 37°49' W 122°18'0 0.0
2017-Oct-08 18:30N 37°49' W 122°18'0 0.0
2017-Oct-08 18:00N 37°49' W 122°18'0 0.0
2017-Oct-08 17:30N 37°49' W 122°18'0 0.0
2017-Oct-08 17:00N 37°49' W 122°18'1 1.7
2017-Oct-08 16:31N 37°49' W 122°19'2 3.6
2017-Oct-08 16:01N 37°50' W 122°21'1 1.5
2017-Oct-08 15:31N 37°50' W 122°22'4 8.5
2017-Oct-08 15:00N 37°49' W 122°27'3 5.3
2017-Oct-08 14:31N 37°48' W 122°31'2 4.6
2017-Oct-08 14:01N 37°47' W 122°33'2 4.0
2017-Oct-08 13:30N 37°47' W 122°36'3 5.6
2017-Oct-08 13:00N 37°45' W 122°39'2 4.3
2017-Oct-08 12:30N 37°44' W 122°41'3 6.8
2017-Oct-08 12:00N 37°44' W 122°45'3 6.9
2017-Oct-08 11:31N 37°43' W 122°50'3 6.5
2017-Oct-08 11:00N 37°41' W 122°53'3 5.9
2017-Oct-08 10:31N 37°39' W 122°56'3 5.7
2017-Oct-08 09:59N 37°38' W 122°60'3 6.3
2017-Oct-08 09:31N 37°38' W 123°03'3 6.1
2017-Oct-08 09:00N 37°38' W 123°07'4 6.1
2017-Oct-08 08:20N 37°38' W 123°12'7 6.1
2017-Oct-08 07:13N 37°39' W 123°21'6 6.3
2017-Oct-08 06:14N 37°39' W 123°29'12 4.3
2017-Oct-08 03:21N 37°39' W 123°13'2 4.1
2017-Oct-08 02:45N 37°38' W 123°10'1 4.0
2017-Oct-08 02:27N 37°38' W 123°09'2 4.3
2017-Oct-08 02:00N 37°38' W 123°06'2 4.2
2017-Oct-08 01:30N 37°38' W 123°03'2 4.2
2017-Oct-08 01:01N 37°38' W 123°01'2 4.6
2017-Oct-08 00:30N 37°38' W 122°58'3 5.7
2017-Oct-08 00:00N 37°40' W 122°55'6 5.9
2017-Oct-07 22:58N 37°43' W 122°48'6 5.4
2017-Oct-07 21:47N 37°46' W 122°41'1 4.5
2017-Oct-07 21:31N 37°46' W 122°39'3 5.1
2017-Oct-07 20:52N 37°47' W 122°36'2 5.7
2017-Oct-07 20:30N 37°48' W 122°33'3 5.2
2017-Oct-07 20:01N 37°49' W 122°30'2 4.1
2017-Oct-07 19:31N 37°50' W 122°28'2 4.3
2017-Oct-07 19:00N 37°50' W 122°25'3 5.0
2017-Oct-07 18:30N 37°48' W 122°23'2 4.7
2017-Oct-07 18:01N 37°48' W 122°20'0 0.3
2017-Oct-07 17:30N 37°48' W 122°20'2 3.3
2017-Oct-07 17:00N 37°49' W 122°19'0 0.2
2017-Oct-07 16:30N 37°49' W 122°18'0 0.0
2017-Oct-07 16:01N 37°49' W 122°18'0 0.0
2017-Oct-07 15:30N 37°49' W 122°18'0 0.0
2017-Oct-07 15:00N 37°49' W 122°18'0 0.0
2017-Oct-07 14:30N 37°49' W 122°18'0 0.0
2017-Oct-07 14:01N 37°49' W 122°18'0 0.0
2017-Oct-07 13:30N 37°49' W 122°18'0 0.0
2017-Oct-07 13:01N 37°49' W 122°18'  
Track history (hours):
 
Tides and Currents Weather Stations Pressure Air Temp Water Temp Dewpoint Dewpoint Depression Visibility Wind Speed Wind Dir Waves Ship Positions

Arthur Brusco

Owner: Brusco Tug & Barge, Inc, Longview, WA. More information available from US FCC via Universal Licensing System and Coast Guard Vessel Documentation Center.

Last reported at 2017-Oct-17 13:00 UTC. Time now 2017-Oct-17 13:10 UTC.
Position N 37°38' W 123°11'.

Length 35 m; draft 3.2 m.

Type: Other ship. MMSI: 271040404.

Date/timePositionNaut miles runAvg speedWind from/ knotsBaromVisibWave heightAir tempDewpointWater temp
2017-Oct-17 13:00N 37°38' W 123°11'5 9.2
2017-Oct-17 12:30N 37°38' W 123°17'5 9.0
2017-Oct-17 12:01N 37°39' W 123°22'5 9.5
2017-Oct-17 11:30N 37°39' W 123°28'1 2.8
2017-Oct-17 11:01N 37°39' W 123°27'4 7.4
2017-Oct-17 10:30N 37°39' W 123°22'4 7.6
2017-Oct-17 10:00N 37°38' W 123°17'4 7.5
2017-Oct-17 09:30N 37°38' W 123°12'4 7.4
2017-Oct-17 09:01N 37°38' W 123°08'4 7.8
2017-Oct-17 08:31N 37°38' W 123°03'4 7.8
2017-Oct-17 08:00N 37°38' W 122°58'4 8.0
2017-Oct-17 07:30N 37°41' W 122°54'4 7.9
2017-Oct-17 07:00N 37°43' W 122°49'4 7.9
2017-Oct-17 06:30N 37°45' W 122°45'4 7.3
2017-Oct-17 06:00N 37°46' W 122°41'4 7.1
2017-Oct-17 05:30N 37°46' W 122°36'3 6.6
2017-Oct-17 05:01N 37°48' W 122°32'3 5.2
2017-Oct-17 04:30N 37°49' W 122°29'2 4.7
2017-Oct-17 04:00N 37°50' W 122°27'2 4.7
2017-Oct-17 03:30N 37°49' W 122°24'2 4.5
2017-Oct-17 03:01N 37°48' W 122°21'1 2.2
2017-Oct-17 02:31N 37°48' W 122°20'2 3.4
2017-Oct-17 02:01N 37°49' W 122°19'0 0.0
2017-Oct-17 01:31N 37°49' W 122°19'0 0.0
2017-Oct-17 01:00N 37°49' W 122°19'0 0.0
2017-Oct-17 00:30N 37°49' W 122°19'0 0.0
2017-Oct-17 00:00N 37°49' W 122°19'1 2.0
2017-Oct-16 23:31N 37°49' W 122°20'2 3.8
2017-Oct-16 23:00N 37°50' W 122°21'0 0.0
2017-Oct-16 22:31N 37°50' W 122°21'0 0.0
2017-Oct-16 22:00N 37°50' W 122°21'0 0.0
2017-Oct-16 21:31N 37°50' W 122°21'0 0.0
2017-Oct-16 21:00N 37°50' W 122°21'0 0.0
2017-Oct-16 20:30N 37°50' W 122°21'0 0.0
2017-Oct-16 20:01N 37°50' W 122°21'0 0.0
2017-Oct-16 19:30N 37°50' W 122°21'0 0.1
2017-Oct-16 19:00N 37°50' W 122°21'0 0.7
2017-Oct-16 18:31N 37°50' W 122°22'2 4.1
2017-Oct-16 18:01N 37°49' W 122°24'4 7.8
2017-Oct-16 17:30N 37°49' W 122°29'510.4
2017-Oct-16 17:01N 37°46' W 122°35'5 9.5
2017-Oct-16 16:31N 37°44' W 122°40'4 7.1
2017-Oct-16 16:01N 37°44' W 122°45'5 9.2
2017-Oct-16 15:30N 37°42' W 122°50'5 9.1
2017-Oct-16 15:00N 37°40' W 122°55'9 9.1
2017-Oct-16 14:00N 37°38' W 123°07'6 1.6
2017-Oct-16 10:27N 37°38' W 123°14'3 7.8
2017-Oct-16 10:00N 37°38' W 123°10'4 7.8
2017-Oct-16 09:31N 37°38' W 123°05'4 8.1
2017-Oct-16 09:00N 37°38' W 122°60'4 8.3
2017-Oct-16 08:29N 37°40' W 122°55'5 8.4
2017-Oct-16 07:51N 37°43' W 122°49'3 8.4
2017-Oct-16 07:31N 37°44' W 122°46'4 7.5
2017-Oct-16 07:00N 37°46' W 122°41'4 8.2
2017-Oct-16 06:30N 37°46' W 122°36'4 8.6
2017-Oct-16 06:00N 37°48' W 122°31'4 7.5
2017-Oct-16 05:30N 37°50' W 122°27'3 6.8
2017-Oct-16 05:00N 37°48' W 122°23'3 5.4
2017-Oct-16 04:30N 37°49' W 122°20'0 0.6
2017-Oct-16 04:01N 37°49' W 122°19'1 1.3
2017-Oct-16 03:31N 37°49' W 122°19'1 1.9
2017-Oct-16 03:00N 37°49' W 122°20'1 2.0
2017-Oct-16 02:31N 37°48' W 122°20'2 4.0
2017-Oct-16 02:01N 37°48' W 122°23'4 8.4
2017-Oct-16 01:30N 37°49' W 122°28'510.3
2017-Oct-16 01:01N 37°47' W 122°34'5 9.8
2017-Oct-16 00:31N 37°45' W 122°39'4 7.9
2017-Oct-16 00:01N 37°44' W 122°44'5 9.4
2017-Oct-15 23:30N 37°42' W 122°50'6 9.4
2017-Oct-15 22:51N 37°39' W 122°57'3 9.3
2017-Oct-15 22:30N 37°38' W 123°00'5 9.5
2017-Oct-15 22:00N 37°38' W 123°06'16 9.1
2017-Oct-15 20:18N 37°39' W 123°26'2 6.6
2017-Oct-15 19:57N 37°39' W 123°29'7 6.0
2017-Oct-15 18:46N 37°39' W 123°20'2 7.0
2017-Oct-15 18:27N 37°39' W 123°17'3 7.0
2017-Oct-15 18:00N 37°38' W 123°13'4 7.0
2017-Oct-15 17:31N 37°38' W 123°09'3 6.9
2017-Oct-15 17:00N 37°38' W 123°04'3 6.8
2017-Oct-15 16:31N 37°38' W 123°00'3 6.7
2017-Oct-15 16:00N 37°40' W 122°56'4 6.8
2017-Oct-15 15:27N 37°42' W 122°52'3 6.5
2017-Oct-15 14:56N 37°43' W 122°48'7 6.3
2017-Oct-15 13:48N 37°46' W 122°40'2 6.2
2017-Oct-15 13:26N 37°46' W 122°37'2 5.8
2017-Oct-15 13:00N 37°47' W 122°34'3 5.8
2017-Oct-15 12:30N 37°49' W 122°31'3 5.6
2017-Oct-15 12:01N 37°50' W 122°28'3 5.6
2017-Oct-15 11:30N 37°49' W 122°24'3 5.2
2017-Oct-15 11:00N 37°48' W 122°21'1 2.8
2017-Oct-15 10:31N 37°49' W 122°20'0 0.4
2017-Oct-15 10:00N 37°49' W 122°19'1 1.2
2017-Oct-15 09:31N 37°49' W 122°19'0 0.0
2017-Oct-15 09:01N 37°49' W 122°19'0 0.0
2017-Oct-15 08:30N 37°49' W 122°19'0 0.0
2017-Oct-15 08:01N 37°49' W 122°19'0 0.0
2017-Oct-15 07:31N 37°49' W 122°19'0 0.0
2017-Oct-15 07:01N 37°49' W 122°19'0 0.0
2017-Oct-15 06:31N 37°49' W 122°19'0 0.0
2017-Oct-15 06:00N 37°49' W 122°19'0 0.0
2017-Oct-15 05:31N 37°49' W 122°19'0 0.0
2017-Oct-15 05:01N 37°49' W 122°19'0 0.0
2017-Oct-15 04:31N 37°49' W 122°19'0 0.0
2017-Oct-15 04:00N 37°49' W 122°19'0 0.0
2017-Oct-15 03:30N 37°49' W 122°19'0 0.0
2017-Oct-15 03:01N 37°49' W 122°19'0 0.0
2017-Oct-15 02:31N 37°49' W 122°19'0 0.0
2017-Oct-15 02:01N 37°49' W 122°19'0 0.0
2017-Oct-15 01:30N 37°49' W 122°19'0 0.0
2017-Oct-15 01:01N 37°49' W 122°19'0 0.0
2017-Oct-15 00:31N 37°49' W 122°19'0 0.0
2017-Oct-15 00:00N 37°49' W 122°19'0 0.0
2017-Oct-14 23:31N 37°49' W 122°19'0 0.0
2017-Oct-14 23:01N 37°49' W 122°19'0 0.6
2017-Oct-14 22:30N 37°49' W 122°19'1 1.7
2017-Oct-14 22:01N 37°49' W 122°20'1 1.7
2017-Oct-14 21:30N 37°48' W 122°21'2 3.6
2017-Oct-14 21:01N 37°49' W 122°18'0 0.0
2017-Oct-14 20:31N 37°49' W 122°18'0 0.0
2017-Oct-14 20:01N 37°49' W 122°18'0 0.0
2017-Oct-14 19:31N 37°49' W 122°18'0 0.0
2017-Oct-14 19:01N 37°49' W 122°18'0 0.0
2017-Oct-14 18:30N 37°49' W 122°18'0 0.0
2017-Oct-14 18:00N 37°49' W 122°18'1 2.0
2017-Oct-14 17:31N 37°49' W 122°20'2 3.2
2017-Oct-14 17:01N 37°48' W 122°21'1 2.2
2017-Oct-14 16:30N 37°48' W 122°22'4 8.6
2017-Oct-14 16:01N 37°49' W 122°28'4 7.8
2017-Oct-14 15:31N 37°48' W 122°32'4 8.7
2017-Oct-14 15:01N 37°46' W 122°37'7 7.9
2017-Oct-14 14:04N 37°43' W 122°46'110.2
2017-Oct-14 14:00N 37°43' W 122°47'5 9.9
2017-Oct-14 13:30N 37°41' W 122°52'5 9.9
2017-Oct-14 13:01N 37°39' W 122°58'5 9.2
2017-Oct-14 12:31N 37°38' W 123°03'5 9.4
2017-Oct-14 12:01N 37°38' W 123°09'5 9.6
2017-Oct-14 11:28N 37°38' W 123°16'5 9.3
2017-Oct-14 10:58N 37°39' W 123°22'6 8.9
2017-Oct-14 10:20N 37°39' W 123°29'5 4.3
2017-Oct-14 09:06N 37°39' W 123°22'4 6.0
2017-Oct-14 08:27N 37°39' W 123°17'3 5.6
2017-Oct-14 08:00N 37°39' W 123°14'3 5.7
2017-Oct-14 07:30N 37°38' W 123°10'3 6.2
2017-Oct-14 07:00N 37°38' W 123°07'3 6.2
2017-Oct-14 06:30N 37°38' W 123°03'3 6.4
2017-Oct-14 06:01N 37°38' W 122°59'3 6.6
2017-Oct-14 05:30N 37°40' W 122°55'3 6.5
2017-Oct-14 05:00N 37°42' W 122°52'3 6.6
2017-Oct-14 04:30N 37°43' W 122°48'6 6.1
2017-Oct-14 03:32N 37°46' W 122°41'0 5.7
2017-Oct-14 03:27N 37°46' W 122°40'2 5.5
2017-Oct-14 03:01N 37°46' W 122°37'3 5.8
2017-Oct-14 02:29N 37°47' W 122°34'3 5.8
2017-Oct-14 02:00N 37°48' W 122°31'3 5.4
2017-Oct-14 01:31N 37°50' W 122°28'2 4.0
2017-Oct-14 01:01N 37°50' W 122°25'3 5.9
2017-Oct-14 00:30N 37°48' W 122°22'2 3.7
2017-Oct-14 00:01N 37°49' W 122°20'0 0.3
2017-Oct-13 23:30N 37°49' W 122°20'1 1.2
2017-Oct-13 23:00N 37°48' W 122°21'0 0.2
2017-Oct-13 22:30N 37°48' W 122°21'0 0.6
2017-Oct-13 22:01N 37°49' W 122°20'2 3.0
2017-Oct-13 21:31N 37°49' W 122°18'0 0.0
2017-Oct-13 21:01N 37°49' W 122°18'0 0.4
2017-Oct-13 20:30N 37°49' W 122°19'0 0.4
2017-Oct-13 20:01N 37°49' W 122°18'0 0.0
2017-Oct-13 19:31N 37°49' W 122°18'0 0.0
2017-Oct-13 19:00N 37°49' W 122°18'0 0.0
2017-Oct-13 18:31N 37°49' W 122°18'0 0.0
2017-Oct-13 18:01N 37°49' W 122°18'0 0.0
2017-Oct-13 17:30N 37°49' W 122°18'0 0.0
2017-Oct-13 17:01N 37°49' W 122°18'0 0.0
2017-Oct-13 16:31N 37°49' W 122°18'0 0.0
2017-Oct-13 16:01N 37°49' W 122°18'0 0.0
2017-Oct-13 15:30N 37°49' W 122°18'0 0.1
2017-Oct-13 15:01N 37°49' W 122°19'1 1.3
2017-Oct-13 14:30N 37°49' W 122°19'1 2.5
2017-Oct-13 14:01N 37°48' W 122°21'1 1.7
2017-Oct-13 13:30N 37°49' W 122°20'1 2.1
2017-Oct-13 13:00N 37°49' W 122°19'0 0.0
2017-Oct-13 12:31N 37°49' W 122°19'0 0.0
2017-Oct-13 12:00N 37°49' W 122°19'0 0.0
2017-Oct-13 11:30N 37°49' W 122°19'0 0.0
2017-Oct-13 11:01N 37°49' W 122°19'0 0.0
2017-Oct-13 10:30N 37°49' W 122°19'2 3.3
2017-Oct-13 10:01N 37°48' W 122°20'1 2.0
2017-Oct-13 09:31N 37°49' W 122°19'1 1.4
2017-Oct-13 09:00N 37°49' W 122°18'0 0.0
2017-Oct-13 08:30N 37°49' W 122°18'0 0.0
2017-Oct-13 08:00N 37°49' W 122°18'0 0.0
2017-Oct-13 07:30N 37°49' W 122°18'0 0.0
2017-Oct-13 07:01N 37°49' W 122°18'0 0.0
2017-Oct-13 06:30N 37°49' W 122°18'0 0.0
2017-Oct-13 06:01N 37°49' W 122°18'0 0.0
2017-Oct-13 05:30N 37°49' W 122°18'0 0.1
2017-Oct-13 05:00N 37°49' W 122°19'0 0.0
2017-Oct-13 04:31N 37°49' W 122°19'0 0.0
2017-Oct-13 04:00N 37°49' W 122°19'0 0.0
2017-Oct-13 03:31N 37°49' W 122°19'0 0.0
2017-Oct-13 03:00N 37°49' W 122°19'0 0.0
2017-Oct-13 02:31N 37°49' W 122°19'2 4.3
2017-Oct-13 02:00N 37°50' W 122°21'1 1.7
2017-Oct-13 01:31N 37°49' W 122°21'3 5.7
2017-Oct-13 01:01N 37°46' W 122°20'2 5.0
2017-Oct-13 00:30N 37°48' W 122°21'1 1.8
2017-Oct-13 00:00N 37°49' W 122°21'2 4.2
2017-Oct-12 23:31N 37°47' W 122°21'2 3.4
2017-Oct-12 23:01N 37°46' W 122°19'3 5.2
2017-Oct-12 22:31N 37°49' W 122°20'0 0.6
2017-Oct-12 22:00N 37°49' W 122°20'1 1.1
2017-Oct-12 21:30N 37°48' W 122°21'0 0.5
2017-Oct-12 21:00N 37°49' W 122°20'2 3.1
2017-Oct-12 20:30N 37°49' W 122°19'0 0.0
2017-Oct-12 20:01N 37°49' W 122°19'0 0.0
2017-Oct-12 19:30N 37°49' W 122°19'0 0.2
2017-Oct-12 19:00N 37°49' W 122°19'2 3.2
2017-Oct-12 18:30N 37°48' W 122°20'1 3.0
2017-Oct-12 18:01N 37°49' W 122°21'1 2.0
2017-Oct-12 17:30N 37°50' W 122°21'0 0.0
2017-Oct-12 17:01N 37°50' W 122°21'0 0.1
2017-Oct-12 16:30N 37°50' W 122°21'0 0.0
2017-Oct-12 16:01N 37°50' W 122°21'0 0.1
2017-Oct-12 15:31N 37°50' W 122°21'0 0.0
2017-Oct-12 15:01N 37°50' W 122°21'0 0.0
2017-Oct-12 14:30N 37°50' W 122°21'0 0.1
2017-Oct-12 14:00N 37°50' W 122°21'0 0.0
2017-Oct-12 13:30N 37°50' W 122°21'0 0.0
2017-Oct-12 13:01N 37°50' W 122°21'0 0.0
2017-Oct-12 12:30N 37°50' W 122°21'0 0.0
2017-Oct-12 12:00N 37°50' W 122°21'0 0.5
2017-Oct-12 11:31N 37°50' W 122°22'2 4.1
2017-Oct-12 11:00N 37°49' W 122°24'4 8.0
2017-Oct-12 10:31N 37°49' W 122°29'5 9.6
2017-Oct-12 10:01N 37°47' W 122°35'4 8.7
2017-Oct-12 09:31N 37°45' W 122°40'3 6.9
2017-Oct-12 09:00N 37°44' W 122°44'3 6.4
2017-Oct-12 08:31N 37°43' W 122°48'4 7.6
2017-Oct-12 08:00N 37°41' W 122°52'3 6.8
2017-Oct-12 07:31N 37°40' W 122°56'3 6.3
2017-Oct-12 07:01N 37°38' W 122°59'3 6.6
2017-Oct-12 06:31N 37°38' W 123°03'3 6.8
2017-Oct-12 06:00N 37°38' W 123°08'3 6.6
2017-Oct-12 05:30N 37°38' W 123°12'3 6.6
2017-Oct-12 05:00N 37°39' W 123°16'3 6.4
2017-Oct-12 04:30N 37°39' W 123°20'3 6.2
2017-Oct-12 04:00N 37°39' W 123°24'4 5.8
2017-Oct-12 03:20N 37°39' W 123°29'9 3.7
2017-Oct-12 00:50N 37°39' W 123°17'3 4.2
2017-Oct-12 00:07N 37°38' W 123°13'2 4.5
2017-Oct-11 23:45N 37°38' W 123°11'1 4.5
2017-Oct-11 23:30N 37°38' W 123°10'2 4.5
2017-Oct-11 23:00N 37°38' W 123°07'2 4.4
2017-Oct-11 22:30N 37°38' W 123°04'2 4.6
2017-Oct-11 22:00N 37°38' W 123°01'3 5.1
2017-Oct-11 21:29N 37°38' W 122°58'3 6.1
2017-Oct-11 21:01N 37°40' W 122°55'4 6.0
2017-Oct-11 20:25N 37°42' W 122°51'3 6.1
2017-Oct-11 20:00N 37°43' W 122°48'3 5.7
2017-Oct-11 19:30N 37°44' W 122°45'3 5.6
2017-Oct-11 18:58N 37°46' W 122°42'2 5.2
2017-Oct-11 18:30N 37°46' W 122°39'3 5.5
2017-Oct-11 18:00N 37°47' W 122°35'3 6.1
2017-Oct-11 17:31N 37°48' W 122°32'4 7.8
2017-Oct-11 17:00N 37°50' W 122°27'5 0.3
2017-Oct-11 00:01N 37°50' W 122°21'0 1.0
2017-Oct-10 23:30N 37°49' W 122°21'2 4.5
2017-Oct-10 23:01N 37°49' W 122°18'0 0.0
2017-Oct-10 22:30N 37°49' W 122°18'2 5.0
2017-Oct-10 22:01N 37°47' W 122°21'1 2.3
2017-Oct-10 21:31N 37°46' W 122°20'3 6.9
2017-Oct-10 21:00N 37°50' W 122°22'0 0.8
2017-Oct-10 20:30N 37°50' W 122°21'1 2.9
2017-Oct-10 20:01N 37°49' W 122°20'2 3.1
2017-Oct-10 19:31N 37°49' W 122°19'0 0.0
2017-Oct-10 19:01N 37°49' W 122°19'0 0.0
2017-Oct-10 18:30N 37°49' W 122°19'0 0.0
2017-Oct-10 18:00N 37°49' W 122°19'0 0.0
2017-Oct-10 17:30N 37°49' W 122°19'0 0.0
2017-Oct-10 17:00N 37°49' W 122°19'2 3.7
2017-Oct-10 16:31N 37°48' W 122°21'0 0.8
2017-Oct-10 16:00N 37°48' W 122°21'0 1.0
2017-Oct-10 15:30N 37°48' W 122°21'4 7.5
2017-Oct-10 15:01N 37°49' W 122°26'6 5.6
2017-Oct-10 14:00N 37°47' W 122°32'4 7.8
2017-Oct-10 13:30N 37°46' W 122°37'5 7.7
2017-Oct-10 12:55N 37°44' W 122°42'3 6.9
2017-Oct-10 12:30N 37°43' W 122°46'7 9.1
2017-Oct-10 11:47N 37°41' W 122°53'3 9.5
2017-Oct-10 11:30N 37°39' W 122°56'5 9.1
2017-Oct-10 11:01N 37°38' W 123°02'5 9.2
2017-Oct-10 10:30N 37°38' W 123°08'5 9.1
2017-Oct-10 10:00N 37°38' W 123°13'5 9.1
2017-Oct-10 09:27N 37°39' W 123°20'7 8.9
2017-Oct-10 08:39N 37°39' W 123°29'15 6.3
2017-Oct-10 06:17N 37°38' W 123°10'2 6.7
2017-Oct-10 06:00N 37°38' W 123°07'3 6.9
2017-Oct-10 05:30N 37°38' W 123°03'4 7.0
2017-Oct-10 04:54N 37°39' W 122°58'16 6.9
2017-Oct-10 02:36N 37°45' W 122°40'2 7.3
2017-Oct-10 02:18N 37°46' W 122°37'2 7.5
2017-Oct-10 01:59N 37°47' W 122°34'4 9.0
2017-Oct-10 01:31N 37°49' W 122°30'4 8.8
2017-Oct-10 01:01N 37°49' W 122°24'3 6.4
2017-Oct-10 00:30N 37°48' W 122°20'0 0.5
2017-Oct-10 00:01N 37°48' W 122°20'0 0.7
2017-Oct-09 23:31N 37°48' W 122°20'0 0.0
2017-Oct-09 23:01N 37°48' W 122°20'2 3.2
2017-Oct-09 22:30N 37°49' W 122°21'3 5.3
2017-Oct-09 22:00N 37°51' W 122°23'2 4.6
2017-Oct-09 21:31N 37°53' W 122°24'1 2.6
2017-Oct-09 21:00N 37°54' W 122°23'1 1.6
2017-Oct-09 20:30N 37°54' W 122°22'0 0.2
2017-Oct-09 20:01N 37°54' W 122°22'0 0.8
2017-Oct-09 19:31N 37°54' W 122°23'4 7.3
2017-Oct-09 19:00N 37°51' W 122°22'3 6.2
2017-Oct-09 18:31N 37°49' W 122°19'0 0.6
2017-Oct-09 18:00N 37°49' W 122°18'0 0.0
2017-Oct-09 17:31N 37°49' W 122°18'0 0.0
2017-Oct-09 17:00N 37°49' W 122°18'0 0.0
2017-Oct-09 16:31N 37°49' W 122°18'0 0.0
2017-Oct-09 16:01N 37°49' W 122°18'0 0.0
2017-Oct-09 15:31N 37°49' W 122°18'0 0.0
2017-Oct-09 15:01N 37°49' W 122°18'0 0.0
2017-Oct-09 14:30N 37°49' W 122°18'0 0.0
2017-Oct-09 14:01N 37°49' W 122°18'0 0.1
2017-Oct-09 13:31N 37°49' W 122°19'0 0.1
2017-Oct-09 13:01N 37°49' W 122°18'0 0.0
2017-Oct-09 12:30N 37°49' W 122°18'0 0.0
2017-Oct-09 12:01N 37°49' W 122°18'0 0.0
2017-Oct-09 11:31N 37°49' W 122°18'0 0.0
2017-Oct-09 11:01N 37°49' W 122°18'0 0.0
2017-Oct-09 10:31N 37°49' W 122°18'0 0.0
2017-Oct-09 10:00N 37°49' W 122°18'0 0.0
2017-Oct-09 09:30N 37°49' W 122°18'0 0.0
2017-Oct-09 09:01N 37°49' W 122°18'0 0.0
2017-Oct-09 08:30N 37°49' W 122°18'0 0.1
2017-Oct-09 08:01N 37°49' W 122°19'0 0.1
2017-Oct-09 07:30N 37°49' W 122°18'0 0.0
2017-Oct-09 07:00N 37°49' W 122°18'0 0.0
2017-Oct-09 06:30N 37°49' W 122°18'0 0.0
2017-Oct-09 06:00N 37°49' W 122°18'0 0.0
2017-Oct-09 05:30N 37°49' W 122°18'0 0.0
2017-Oct-09 05:00N 37°49' W 122°18'0 0.0
2017-Oct-09 04:30N 37°49' W 122°18'0 0.0
2017-Oct-09 04:01N 37°49' W 122°18'0 0.0
2017-Oct-09 03:30N 37°49' W 122°18'0 0.0
2017-Oct-09 03:00N 37°49' W 122°18'0 0.0
2017-Oct-09 02:30N 37°49' W 122°18'0 0.0
2017-Oct-09 02:00N 37°49' W 122°18'0 0.0
2017-Oct-09 01:31N 37°49' W 122°18'0 0.0
2017-Oct-09 01:00N 37°49' W 122°18'0 0.0
2017-Oct-09 00:31N 37°49' W 122°18'0 0.0
2017-Oct-09 00:01N 37°49' W 122°18'0 0.6
2017-Oct-08 23:30N 37°49' W 122°19'0 0.0
2017-Oct-08 23:01N 37°49' W 122°19'0 0.0
2017-Oct-08 22:30N 37°49' W 122°19'0 0.0
2017-Oct-08 22:01N 37°49' W 122°19'0 0.6
2017-Oct-08 21:31N 37°49' W 122°18'0 0.0
2017-Oct-08 21:01N 37°49' W 122°18'0 0.0
2017-Oct-08 20:31N 37°49' W 122°18'0 0.0
2017-Oct-08 20:00N 37°49' W 122°18'0 0.0
2017-Oct-08 19:30N 37°49' W 122°18'0 0.0
2017-Oct-08 19:01N 37°49' W 122°18'0 0.0
2017-Oct-08 18:30N 37°49' W 122°18'0 0.0
2017-Oct-08 18:00N 37°49' W 122°18'0 0.0
2017-Oct-08 17:30N 37°49' W 122°18'0 0.0
2017-Oct-08 17:00N 37°49' W 122°18'1 1.7
2017-Oct-08 16:31N 37°49' W 122°19'2 3.6
2017-Oct-08 16:01N 37°50' W 122°21'1 1.5
2017-Oct-08 15:31N 37°50' W 122°22'4 8.5
2017-Oct-08 15:00N 37°49' W 122°27'3 5.3
2017-Oct-08 14:31N 37°48' W 122°31'2 4.6
2017-Oct-08 14:01N 37°47' W 122°33'2 4.0
2017-Oct-08 13:30N 37°47' W 122°36'3 5.6
2017-Oct-08 13:00N 37°45' W 122°39'2 4.3
2017-Oct-08 12:30N 37°44' W 122°41'3 6.8
2017-Oct-08 12:00N 37°44' W 122°45'3 6.9
2017-Oct-08 11:31N 37°43' W 122°50'3 6.5
2017-Oct-08 11:00N 37°41' W 122°53'3 5.9
2017-Oct-08 10:31N 37°39' W 122°56'3 5.7
2017-Oct-08 09:59N 37°38' W 122°60'3 6.3
2017-Oct-08 09:31N 37°38' W 123°03'3 6.1
2017-Oct-08 09:00N 37°38' W 123°07'4 6.1
2017-Oct-08 08:20N 37°38' W 123°12'7 6.1
2017-Oct-08 07:13N 37°39' W 123°21'6 6.3
2017-Oct-08 06:14N 37°39' W 123°29'12 4.3
2017-Oct-08 03:21N 37°39' W 123°13'2 4.1
2017-Oct-08 02:45N 37°38' W 123°10'1 4.0
2017-Oct-08 02:27N 37°38' W 123°09'2 4.3
2017-Oct-08 02:00N 37°38' W 123°06'2 4.2
2017-Oct-08 01:30N 37°38' W 123°03'2 4.2
2017-Oct-08 01:01N 37°38' W 123°01'2 4.6
2017-Oct-08 00:30N 37°38' W 122°58'3 5.7
2017-Oct-08 00:00N 37°40' W 122°55'6 5.9
2017-Oct-07 22:58N 37°43' W 122°48'6 5.4
2017-Oct-07 21:47N 37°46' W 122°41'1 4.5
2017-Oct-07 21:31N 37°46' W 122°39'3 5.1
2017-Oct-07 20:52N 37°47' W 122°36'2 5.7
2017-Oct-07 20:30N 37°48' W 122°33'3 5.2
2017-Oct-07 20:01N 37°49' W 122°30'2 4.1
2017-Oct-07 19:31N 37°50' W 122°28'2 4.3
2017-Oct-07 19:00N 37°50' W 122°25'3 5.0
2017-Oct-07 18:30N 37°48' W 122°23'2 4.7
2017-Oct-07 18:01N 37°48' W 122°20'0 0.3
2017-Oct-07 17:30N 37°48' W 122°20'2 3.3
2017-Oct-07 17:00N 37°49' W 122°19'0 0.2
2017-Oct-07 16:30N 37°49' W 122°18'0 0.0
2017-Oct-07 16:01N 37°49' W 122°18'0 0.0
2017-Oct-07 15:30N 37°49' W 122°18'0 0.0
2017-Oct-07 15:00N 37°49' W 122°18'0 0.0
2017-Oct-07 14:30N 37°49' W 122°18'0 0.0
2017-Oct-07 14:01N 37°49' W 122°18'0 0.0
2017-Oct-07 13:30N 37°49' W 122°18'0 0.0
2017-Oct-07 13:01N 37°49' W 122°18'  

Dump ship's entire track history